createdAt,value
2023-10-01T00:00:42.116Z,77.59
2023-10-01T00:01:42.249Z,77.70
2023-10-01T00:02:42.104Z,77.49
2023-10-01T00:03:42.090Z,78.04
2023-10-01T00:04:42.107Z,78.14
2023-10-01T00:05:42.039Z,78.04
2023-10-01T00:06:42.054Z,77.90
2023-10-01T00:07:42.015Z,77.70
2023-10-01T00:08:42.059Z,77.49
2023-10-01T00:09:41.999Z,77.39
2023-10-01T00:10:41.996Z,77.43
2023-10-01T00:11:41.979Z,77.73
2023-10-01T00:12:41.980Z,77.70
2023-10-01T00:13:41.947Z,77.29
2023-10-01T00:14:41.962Z,77.09
2023-10-01T00:15:41.957Z,76.98
2023-10-01T00:16:42.003Z,76.98
2023-10-01T00:17:41.972Z,77.09
2023-10-01T00:18:41.907Z,77.29
2023-10-01T00:19:41.937Z,77.22
2023-10-01T00:20:41.873Z,77.22
2023-10-01T00:21:41.895Z,77.22
2023-10-01T00:22:41.841Z,76.98
2023-10-01T00:23:41.842Z,76.88
2023-10-01T00:24:41.818Z,76.88
2023-10-01T00:25:41.977Z,76.78
2023-10-01T00:26:41.798Z,76.82
2023-10-01T00:27:41.804Z,76.82
2023-10-01T00:28:41.776Z,76.92
2023-10-01T00:29:41.772Z,76.78
2023-10-01T00:30:41.753Z,76.82
2023-10-01T00:31:41.878Z,77.12
2023-10-01T00:32:41.901Z,77.12
2023-10-01T00:33:41.721Z,77.33
2023-10-01T00:34:41.708Z,77.33
2023-10-01T00:35:41.888Z,77.56
2023-10-01T00:36:41.695Z,77.56
2023-10-01T00:37:41.740Z,77.53
2023-10-01T00:38:41.671Z,77.47
2023-10-01T00:39:41.700Z,77.43
2023-10-01T00:40:41.677Z,77.33
2023-10-01T00:41:41.666Z,77.12
2023-10-01T00:42:41.643Z,77.12
2023-10-01T00:43:41.739Z,77.22
2023-10-01T00:44:41.785Z,77.16
2023-10-01T00:45:41.714Z,77.36
2023-10-01T00:46:41.812Z,78.58
2023-10-01T00:47:42.012Z,78.38
2023-10-01T00:48:41.693Z,77.73
2023-10-01T00:49:41.567Z,77.22
2023-10-01T00:50:41.540Z,77.33
2023-10-01T00:51:41.506Z,77.26
2023-10-01T00:52:41.520Z,77.47
2023-10-01T00:53:41.506Z,77.47
2023-10-01T00:54:41.488Z,77.36
2023-10-01T00:55:41.490Z,77.26
2023-10-01T00:56:41.465Z,77.16
2023-10-01T00:57:41.446Z,77.06
2023-10-01T00:58:41.484Z,77.06
2023-10-01T00:59:41.427Z,77.26
2023-10-01T01:00:41.406Z,77.47
2023-10-01T01:01:41.486Z,77.56
2023-10-01T01:02:41.502Z,77.47
2023-10-01T01:03:41.434Z,77.47
2023-10-01T01:04:41.426Z,77.67
2023-10-01T01:05:41.358Z,77.67
2023-10-01T01:06:41.347Z,77.91
2023-10-01T01:07:41.367Z,78.11
2023-10-01T01:08:41.304Z,78.41
2023-10-01T01:09:41.311Z,78.52
2023-10-01T01:10:41.311Z,79.16
2023-10-01T01:11:41.274Z,79.37
2023-10-01T01:12:41.278Z,79.23
2023-10-01T01:13:41.256Z,78.82
2023-10-01T01:14:41.271Z,78.31
2023-10-01T01:15:41.272Z,78.52
2023-10-01T01:16:41.309Z,78.72
2023-10-01T01:17:41.236Z,78.58
2023-10-01T01:18:41.185Z,78.08
2023-10-01T01:19:41.195Z,77.77
2023-10-01T01:20:41.165Z,77.56
2023-10-01T01:21:41.214Z,77.36
2023-10-01T01:22:41.141Z,77.29
2023-10-01T01:23:41.142Z,77.81
2023-10-01T01:24:41.119Z,77.67
2023-10-01T01:25:41.114Z,77.47
2023-10-01T01:26:41.109Z,77.16
2023-10-01T01:27:41.107Z,77.60
2023-10-01T01:28:41.087Z,77.70
2023-10-01T01:29:41.082Z,77.36
2023-10-01T01:30:41.046Z,77.20
2023-10-01T01:31:41.144Z,77.40
2023-10-01T01:32:41.035Z,77.81
2023-10-01T01:33:41.051Z,78.01
2023-10-01T01:34:41.001Z,78.21
2023-10-01T01:35:40.992Z,77.91
2023-10-01T01:36:40.996Z,78.76
2023-10-01T01:37:41.001Z,79.16
2023-10-01T01:38:40.961Z,78.55
2023-10-01T01:39:40.948Z,78.86
2023-10-01T01:40:40.949Z,78.76
2023-10-01T01:41:40.933Z,78.66
2023-10-01T01:42:40.924Z,78.76
2023-10-01T01:43:40.950Z,78.86
2023-10-01T01:44:40.916Z,78.66
2023-10-01T01:45:40.883Z,78.25
2023-10-01T01:46:40.949Z,79.20
2023-10-01T01:47:40.928Z,80.02
2023-10-01T01:48:40.849Z,80.63
2023-10-01T01:49:40.824Z,80.77
2023-10-01T01:50:40.850Z,81.17
2023-10-01T01:51:40.828Z,81.07
2023-10-01T01:52:40.811Z,80.93
2023-10-01T01:53:40.790Z,80.73
2023-10-01T01:54:40.781Z,80.52
2023-10-01T01:55:40.768Z,80.63
2023-10-01T01:56:40.772Z,80.83
2023-10-01T01:57:40.749Z,80.93
2023-10-01T01:58:40.729Z,80.49
2023-10-01T01:59:40.739Z,80.63
2023-10-01T02:00:40.724Z,80.83
2023-10-01T02:01:40.843Z,81.04
2023-10-01T02:02:40.772Z,81.44
2023-10-01T02:03:40.715Z,81.65
2023-10-01T02:04:40.664Z,81.65
2023-10-01T02:05:40.714Z,81.85
2023-10-01T02:06:40.655Z,81.60
2023-10-01T02:07:40.663Z,80.79
2023-10-01T02:08:40.608Z,80.29
2023-10-01T02:09:40.601Z,79.68
2023-10-01T02:10:40.595Z,79.27
2023-10-01T02:11:40.587Z,79.16
2023-10-01T02:12:40.613Z,79.06
2023-10-01T02:13:40.567Z,79.06
2023-10-01T02:14:40.564Z,78.96
2023-10-01T02:15:40.554Z,78.96
2023-10-01T02:16:40.567Z,79.06
2023-10-01T02:17:40.573Z,79.06
2023-10-01T02:18:40.507Z,79.16
2023-10-01T02:19:40.495Z,78.96
2023-10-01T02:20:40.471Z,78.86
2023-10-01T02:21:40.482Z,79.06
2023-10-01T02:22:40.451Z,79.06
2023-10-01T02:23:40.468Z,78.66
2023-10-01T02:24:40.499Z,78.55
2023-10-01T02:25:40.431Z,78.89
2023-10-01T02:26:40.401Z,78.89
2023-10-01T02:27:40.400Z,79.30
2023-10-01T02:28:40.400Z,78.96
2023-10-01T02:29:40.388Z,78.80
2023-10-01T02:30:40.456Z,79.00
2023-10-01T02:31:40.473Z,78.89
2023-10-01T02:32:40.391Z,78.80
2023-10-01T02:33:40.333Z,78.69
2023-10-01T02:34:40.316Z,78.69
2023-10-01T02:35:40.313Z,78.80
2023-10-01T02:36:40.316Z,78.89
2023-10-01T02:37:40.329Z,78.80
2023-10-01T02:38:40.270Z,78.89
2023-10-01T02:39:40.269Z,78.69
2023-10-01T02:40:40.267Z,78.69
2023-10-01T02:41:40.274Z,78.69
2023-10-01T02:42:40.245Z,78.80
2023-10-01T02:43:40.228Z,78.59
2023-10-01T02:44:40.312Z,78.69
2023-10-01T02:45:40.212Z,78.80
2023-10-01T02:46:40.263Z,78.80
2023-10-01T02:47:40.302Z,78.69
2023-10-01T02:48:40.169Z,78.49
2023-10-01T02:49:40.154Z,78.69
2023-10-01T02:50:40.149Z,78.89
2023-10-01T02:51:40.134Z,78.80
2023-10-01T02:52:40.148Z,78.69
2023-10-01T02:53:40.134Z,78.69
2023-10-01T02:54:40.094Z,78.69
2023-10-01T02:55:40.109Z,78.80
2023-10-01T02:56:40.083Z,78.59
2023-10-01T02:57:40.058Z,78.69
2023-10-01T02:58:40.046Z,78.69
2023-10-01T02:59:40.054Z,78.28
2023-10-01T03:00:40.056Z,78.19
2023-10-01T03:01:40.221Z,78.39
2023-10-01T03:02:40.207Z,78.42
2023-10-01T03:03:40.104Z,79.34
2023-10-01T03:04:40.012Z,79.64
2023-10-01T03:05:39.980Z,79.85
2023-10-01T03:06:39.969Z,79.95
2023-10-01T03:07:39.989Z,79.30
2023-10-01T03:08:39.937Z,78.80
2023-10-01T03:09:39.933Z,79.10
2023-10-01T03:10:39.949Z,79.14
2023-10-01T03:11:39.919Z,79.00
2023-10-01T03:12:39.896Z,78.93
2023-10-01T03:13:39.881Z,79.24
2023-10-01T03:14:39.881Z,79.75
2023-10-01T03:15:39.855Z,79.75
2023-10-01T03:16:39.911Z,79.54
2023-10-01T03:17:39.861Z,79.34
2023-10-01T03:18:39.828Z,79.10
2023-10-01T03:19:39.836Z,78.93
2023-10-01T03:20:39.943Z,79.44
2023-10-01T03:21:39.821Z,80.05
2023-10-01T03:22:39.779Z,80.26
2023-10-01T03:23:39.765Z,80.05
2023-10-01T03:24:39.754Z,79.41
2023-10-01T03:25:39.735Z,78.89
2023-10-01T03:26:39.740Z,78.80
2023-10-01T03:27:39.726Z,78.39
2023-10-01T03:28:39.712Z,78.39
2023-10-01T03:29:39.687Z,78.28
2023-10-01T03:30:39.724Z,78.19
2023-10-01T03:31:39.735Z,78.12
2023-10-01T03:32:39.725Z,78.22
2023-10-01T03:33:39.991Z,78.42
2023-10-01T03:34:39.634Z,78.93
2023-10-01T03:35:41.470Z,79.24
2023-10-01T03:36:39.622Z,79.99
2023-10-01T03:37:40.276Z,80.13
2023-10-01T03:38:39.621Z,80.50
2023-10-01T03:39:39.578Z,80.19
2023-10-01T03:40:39.566Z,80.05
2023-10-01T03:41:39.549Z,79.64
2023-10-01T03:42:39.563Z,79.64
2023-10-01T03:43:39.537Z,79.99
2023-10-01T03:44:39.538Z,80.40
2023-10-01T03:45:39.539Z,80.50
2023-10-01T03:46:39.551Z,80.26
2023-10-01T03:47:39.512Z,80.36
2023-10-01T03:48:39.503Z,79.50
2023-10-01T03:49:39.463Z,79.00
2023-10-01T03:50:39.457Z,78.69
2023-10-01T03:51:39.490Z,78.45
2023-10-01T03:52:39.427Z,78.28
2023-10-01T03:53:39.410Z,79.30
2023-10-01T03:54:39.406Z,79.00
2023-10-01T03:55:39.402Z,78.69
2023-10-01T03:56:39.377Z,78.80
2023-10-01T03:57:39.426Z,79.10
2023-10-01T03:58:39.366Z,79.50
2023-10-01T03:59:39.356Z,79.91
2023-10-01T04:00:39.345Z,79.47
2023-10-01T04:01:39.384Z,79.68
2023-10-01T04:02:39.402Z,79.57
2023-10-01T04:03:39.321Z,79.47
2023-10-01T04:04:39.363Z,79.71
2023-10-01T04:05:39.309Z,80.32
2023-10-01T04:06:39.270Z,81.17
2023-10-01T04:07:39.271Z,81.48
2023-10-01T04:08:39.278Z,81.54
2023-10-01T04:09:39.233Z,81.13
2023-10-01T04:10:39.228Z,81.24
2023-10-01T04:11:39.231Z,80.93
2023-10-01T04:12:39.286Z,80.83
2023-10-01T04:13:39.546Z,80.93
2023-10-01T04:14:39.340Z,81.27
2023-10-01T04:15:39.168Z,81.68
2023-10-01T04:16:39.224Z,81.79
2023-10-01T04:17:39.166Z,82.29
2023-10-01T04:18:39.195Z,82.70
2023-10-01T04:19:39.408Z,83.04
2023-10-01T04:20:39.112Z,83.21
2023-10-01T04:21:39.108Z,82.70
2023-10-01T04:22:39.100Z,82.46
2023-10-01T04:23:39.084Z,81.95
2023-10-01T04:24:39.320Z,81.71
2023-10-01T04:25:39.059Z,81.34
2023-10-01T04:26:39.045Z,81.13
2023-10-01T04:27:39.036Z,81.54
2023-10-01T04:28:39.024Z,81.65
2023-10-01T04:29:39.001Z,81.24
2023-10-01T04:30:39.080Z,81.24
2023-10-01T04:31:38.988Z,81.88
2023-10-01T04:32:39.018Z,82.54
2023-10-01T04:33:38.960Z,83.63
2023-10-01T04:34:38.936Z,84.51
2023-10-01T04:35:38.991Z,83.96
2023-10-01T04:36:38.937Z,83.65
2023-10-01T04:37:38.918Z,84.31
2023-10-01T04:38:38.900Z,84.11
2023-10-01T04:39:38.947Z,84.20
2023-10-01T04:40:38.873Z,84.20
2023-10-01T04:41:38.883Z,84.20
2023-10-01T04:42:38.846Z,84.51
2023-10-01T04:43:38.860Z,85.37
2023-10-01T04:44:38.833Z,85.37
2023-10-01T04:45:38.824Z,85.57
2023-10-01T04:46:39.054Z,85.77
2023-10-01T04:47:38.837Z,85.47
2023-10-01T04:48:38.810Z,84.92
2023-10-01T04:49:40.390Z,84.31
2023-10-01T04:50:38.749Z,84.11
2023-10-01T04:51:38.777Z,83.18
2023-10-01T04:52:38.728Z,83.18
2023-10-01T04:53:38.727Z,82.88
2023-10-01T04:54:38.714Z,83.12
2023-10-01T04:55:38.753Z,82.78
2023-10-01T04:56:38.695Z,82.78
2023-10-01T04:57:38.703Z,82.37
2023-10-01T04:58:38.712Z,81.86
2023-10-01T04:59:38.664Z,81.96
2023-10-01T05:00:38.648Z,82.07
2023-10-01T05:01:38.702Z,81.96
2023-10-01T05:02:38.744Z,81.86
2023-10-01T05:03:38.632Z,81.56
2023-10-01T05:04:38.695Z,81.70
2023-10-01T05:05:38.613Z,82.04
2023-10-01T05:06:38.599Z,82.00
2023-10-01T05:07:38.562Z,81.90
2023-10-01T05:08:38.576Z,81.56
2023-10-01T05:09:38.555Z,81.35
2023-10-01T05:10:38.547Z,81.15
2023-10-01T05:11:38.540Z,80.74
2023-10-01T05:12:38.500Z,80.74
2023-10-01T05:13:38.588Z,80.54
2023-10-01T05:14:38.487Z,80.40
2023-10-01T05:15:38.467Z,79.99
2023-10-01T05:16:38.538Z,79.68
2023-10-01T05:17:38.505Z,79.14
2023-10-01T05:18:38.436Z,78.87
2023-10-01T05:19:41.103Z,78.87
2023-10-01T05:20:38.417Z,79.14
2023-10-01T05:21:38.391Z,78.83
2023-10-01T05:22:38.392Z,78.53
2023-10-01T05:23:38.386Z,78.26
2023-10-01T05:24:38.454Z,78.53
2023-10-01T05:25:38.362Z,78.32
2023-10-01T05:26:38.345Z,78.22
2023-10-01T05:27:38.326Z,77.95
2023-10-01T05:28:38.365Z,78.16
2023-10-01T05:29:38.344Z,78.36
2023-10-01T05:30:38.289Z,78.36
2023-10-01T05:31:38.406Z,78.16
2023-10-01T05:32:38.327Z,78.60
2023-10-01T05:33:38.283Z,78.91
2023-10-01T05:34:38.277Z,79.17
2023-10-01T05:35:38.539Z,78.66
2023-10-01T05:36:38.231Z,78.16
2023-10-01T05:37:38.335Z,77.85
2023-10-01T05:38:38.200Z,77.55
2023-10-01T05:39:38.189Z,77.64
2023-10-01T05:40:38.793Z,77.64
2023-10-01T05:41:38.171Z,77.55
2023-10-01T05:42:38.166Z,78.05
2023-10-01T05:43:38.214Z,78.32
2023-10-01T05:44:38.134Z,77.91
2023-10-01T05:45:38.469Z,77.61
2023-10-01T05:46:38.186Z,77.71
2023-10-01T05:47:38.137Z,77.81
2023-10-01T05:48:38.124Z,77.81
2023-10-01T05:49:38.074Z,77.75
2023-10-01T05:50:38.658Z,78.46
2023-10-01T05:51:38.102Z,78.77
2023-10-01T05:52:38.082Z,78.46
2023-10-01T05:53:38.047Z,78.32
2023-10-01T05:54:38.044Z,78.12
2023-10-01T05:55:38.154Z,77.81
2023-10-01T05:56:38.508Z,78.02
2023-10-01T05:57:37.998Z,77.71
2023-10-01T05:58:38.024Z,77.57
2023-10-01T05:59:37.955Z,77.51
2023-10-01T06:00:37.950Z,77.81
2023-10-01T06:01:38.063Z,77.71
2023-10-01T06:02:37.979Z,77.67
2023-10-01T06:03:37.950Z,77.47
2023-10-01T06:04:37.916Z,77.37
2023-10-01T06:05:37.923Z,77.26
2023-10-01T06:06:37.899Z,77.61
2023-10-01T06:07:37.925Z,77.57
2023-10-01T06:08:37.872Z,77.47
2023-10-01T06:09:37.904Z,77.37
2023-10-01T06:10:37.849Z,77.61
2023-10-01T06:11:37.843Z,77.71
2023-10-01T06:12:37.812Z,77.91
2023-10-01T06:13:37.932Z,78.22
2023-10-01T06:14:37.792Z,78.12
2023-10-01T06:15:37.799Z,78.32
2023-10-01T06:16:37.877Z,77.98
2023-10-01T06:17:37.879Z,77.67
2023-10-01T06:18:37.741Z,77.57
2023-10-01T06:19:37.934Z,77.17
2023-10-01T06:20:37.731Z,77.17
2023-10-01T06:21:39.901Z,77.26
2023-10-01T06:22:37.797Z,77.13
2023-10-01T06:23:37.729Z,77.17
2023-10-01T06:24:37.676Z,77.37
2023-10-01T06:25:37.743Z,77.23
2023-10-01T06:26:38.052Z,77.03
2023-10-01T06:27:37.683Z,77.44
2023-10-01T06:28:39.062Z,77.87
2023-10-01T06:29:37.638Z,78.08
2023-10-01T06:30:37.612Z,78.39
2023-10-01T06:31:37.699Z,78.49
2023-10-01T06:32:37.712Z,78.25
2023-10-01T06:33:37.659Z,78.28
2023-10-01T06:34:37.729Z,78.05
2023-10-01T06:35:37.723Z,78.39
2023-10-01T06:36:37.593Z,78.28
2023-10-01T06:37:37.556Z,79.00
2023-10-01T06:38:37.537Z,79.10
2023-10-01T06:39:37.510Z,79.06
2023-10-01T06:40:37.510Z,78.76
2023-10-01T06:41:37.483Z,78.31
2023-10-01T06:42:37.497Z,78.52
2023-10-01T06:43:37.500Z,78.41
2023-10-01T06:44:37.449Z,78.72
2023-10-01T06:45:37.460Z,78.62
2023-10-01T06:46:37.568Z,79.57
2023-10-01T06:47:37.446Z,80.29
2023-10-01T06:48:37.514Z,79.74
2023-10-01T06:49:37.454Z,79.47
2023-10-01T06:50:37.439Z,80.08
2023-10-01T06:51:37.377Z,79.63
2023-10-01T06:52:37.410Z,79.43
2023-10-01T06:53:37.378Z,79.02
2023-10-01T06:54:37.333Z,80.02
2023-10-01T06:55:37.363Z,81.38
2023-10-01T06:56:37.748Z,81.44
2023-10-01T06:57:37.300Z,81.10
2023-10-01T06:58:37.381Z,80.79
2023-10-01T06:59:37.309Z,80.76
2023-10-01T07:00:37.310Z,79.90
2023-10-01T07:01:37.336Z,80.55
2023-10-01T07:02:37.333Z,80.21
2023-10-01T07:03:37.333Z,79.70
2023-10-01T07:04:37.263Z,79.90
2023-10-01T07:05:37.269Z,79.25
2023-10-01T07:06:37.217Z,79.25
2023-10-01T07:07:37.278Z,79.16
2023-10-01T07:08:37.170Z,79.16
2023-10-01T07:09:37.198Z,78.61
2023-10-01T07:10:37.189Z,79.05
2023-10-01T07:11:37.184Z,79.25
2023-10-01T07:12:37.157Z,79.39
2023-10-01T07:13:37.158Z,80.85
2023-10-01T07:14:37.108Z,82.32
2023-10-01T07:15:37.222Z,82.28
2023-10-01T07:16:37.898Z,81.19
2023-10-01T07:17:37.101Z,80.37
2023-10-01T07:18:37.065Z,80.78
2023-10-01T07:19:37.100Z,80.33
2023-10-01T07:20:37.043Z,79.59
2023-10-01T07:21:37.024Z,79.38
2023-10-01T07:22:37.062Z,79.83
2023-10-01T07:23:36.997Z,80.24
2023-10-01T07:24:37.016Z,79.69
2023-10-01T07:25:37.013Z,79.90
2023-10-01T07:26:36.977Z,80.19
2023-10-01T07:27:36.948Z,79.96
2023-10-01T07:28:37.033Z,79.25
2023-10-01T07:29:36.940Z,78.97
2023-10-01T07:30:36.911Z,77.59
2023-10-01T07:31:37.104Z,78.19
2023-10-01T07:32:36.929Z,78.44
2023-10-01T07:33:36.921Z,79.14
2023-10-01T07:34:36.915Z,78.36
2023-10-01T07:35:36.867Z,77.61
2023-10-01T07:36:36.844Z,76.50
2023-10-01T07:37:36.891Z,76.54
2023-10-01T07:38:36.817Z,77.79
2023-10-01T07:39:36.843Z,78.36
2023-10-01T07:40:36.842Z,77.82
2023-10-01T07:41:36.808Z,77.17
2023-10-01T07:42:36.780Z,76.46
2023-10-01T07:43:36.799Z,76.36
2023-10-01T07:44:36.816Z,76.70
2023-10-01T07:45:36.751Z,76.77
2023-10-01T07:46:36.854Z,76.26
2023-10-01T07:47:36.846Z,75.92
2023-10-01T07:48:36.719Z,76.12
2023-10-01T07:49:36.715Z,77.61
2023-10-01T07:50:36.692Z,77.03
2023-10-01T07:51:36.685Z,76.77
2023-10-01T07:52:36.688Z,77.75
2023-10-01T07:53:36.650Z,79.24
2023-10-01T07:54:36.627Z,78.49
2023-10-01T07:55:36.929Z,77.54
2023-10-01T07:56:36.615Z,77.34
2023-10-01T07:57:36.590Z,77.95
2023-10-01T07:58:36.616Z,78.15
2023-10-01T07:59:36.636Z,78.31
2023-10-01T08:00:36.560Z,77.26
2023-10-01T08:01:36.817Z,75.92
2023-10-01T08:02:36.628Z,76.02
2023-10-01T08:03:36.564Z,75.55
2023-10-01T08:04:36.569Z,75.14
2023-10-01T08:05:36.596Z,75.10
2023-10-01T08:06:36.496Z,75.31
2023-10-01T08:07:36.521Z,75.71
2023-10-01T08:08:36.468Z,75.57
2023-10-01T08:09:36.457Z,75.74
2023-10-01T08:10:36.512Z,74.53
2023-10-01T08:11:36.489Z,75.40
2023-10-01T08:12:36.460Z,74.96
2023-10-01T08:13:36.468Z,72.95
2023-10-01T08:14:36.418Z,73.58
2023-10-01T08:15:36.377Z,75.44
2023-10-01T08:16:36.446Z,74.93
2023-10-01T08:17:36.433Z,72.58
2023-10-01T08:18:36.945Z,74.40
2023-10-01T08:19:36.396Z,73.15
2023-10-01T08:20:36.352Z,71.91
2023-10-01T08:21:36.753Z,72.07
2023-10-01T08:22:36.362Z,72.41
2023-10-01T08:23:36.304Z,72.81
2023-10-01T08:24:36.278Z,73.11
2023-10-01T08:25:36.328Z,71.06
2023-10-01T08:26:36.251Z,71.87
2023-10-01T08:27:36.308Z,72.07
2023-10-01T08:28:36.297Z,73.22
2023-10-01T08:29:36.247Z,73.72
2023-10-01T08:30:36.292Z,74.08
2023-10-01T08:31:36.330Z,72.94
2023-10-01T08:32:36.225Z,73.18
2023-10-01T08:33:36.172Z,73.42
2023-10-01T08:34:36.242Z,74.73
2023-10-01T08:35:36.187Z,73.79
2023-10-01T08:36:36.143Z,73.08
2023-10-01T08:37:36.161Z,72.64
2023-10-01T08:38:36.148Z,71.50
2023-10-01T08:39:36.122Z,71.06
2023-10-01T08:40:36.132Z,70.93
2023-10-01T08:41:36.095Z,70.32
2023-10-01T08:42:36.076Z,69.89
2023-10-01T08:43:36.115Z,71.60
2023-10-01T08:44:36.059Z,69.49
2023-10-01T08:45:36.028Z,69.38
2023-10-01T08:46:36.113Z,69.12
2023-10-01T08:47:36.501Z,70.89
2023-10-01T08:48:36.008Z,69.22
2023-10-01T08:49:36.042Z,68.78
2023-10-01T08:50:36.015Z,70.09
2023-10-01T08:51:35.960Z,70.46
2023-10-01T08:52:36.062Z,70.06
2023-10-01T08:53:35.945Z,70.63
2023-10-01T08:54:35.934Z,71.77
2023-10-01T08:55:37.666Z,72.00
2023-10-01T08:56:35.931Z,71.30
2023-10-01T08:57:35.893Z,69.99
2023-10-01T08:58:35.895Z,70.16
2023-10-01T08:59:35.868Z,69.92
2023-10-01T09:00:35.896Z,69.19
2023-10-01T09:01:35.919Z,68.99
2023-10-01T09:02:35.911Z,69.42
2023-10-01T09:03:36.131Z,70.43
2023-10-01T09:04:35.842Z,69.92
2023-10-01T09:05:35.830Z,69.29
2023-10-01T09:06:35.804Z,69.19
2023-10-01T09:07:35.838Z,69.19
2023-10-01T09:08:35.756Z,67.48
2023-10-01T09:09:35.767Z,68.59
2023-10-01T09:10:35.776Z,69.22
2023-10-01T09:11:35.729Z,69.29
2023-10-01T09:12:35.721Z,68.65
2023-10-01T09:13:35.726Z,68.62
2023-10-01T09:14:35.726Z,67.05
2023-10-01T09:15:35.702Z,66.71
2023-10-01T09:16:35.722Z,67.72
2023-10-01T09:17:35.756Z,68.12
2023-10-01T09:18:35.638Z,66.99
2023-10-01T09:19:35.692Z,65.31
2023-10-01T09:20:35.670Z,65.92
2023-10-01T09:21:35.654Z,66.12
2023-10-01T09:22:35.628Z,66.65
2023-10-01T09:23:35.584Z,67.25
2023-10-01T09:24:35.592Z,66.25
2023-10-01T09:25:35.657Z,66.48
2023-10-01T09:26:35.566Z,66.72
2023-10-01T09:27:35.543Z,65.19
2023-10-01T09:28:35.611Z,65.39
2023-10-01T09:29:35.521Z,66.92
2023-10-01T09:30:35.511Z,65.89
2023-10-01T09:31:35.582Z,65.25
2023-10-01T09:32:35.668Z,66.52
2023-10-01T09:33:35.548Z,64.89
2023-10-01T09:34:35.891Z,65.78
2023-10-01T09:35:35.467Z,65.92
2023-10-01T09:36:35.470Z,64.81
2023-10-01T09:37:35.731Z,66.05
2023-10-01T09:38:35.408Z,66.95
2023-10-01T09:39:35.398Z,67.32
2023-10-01T09:40:35.404Z,66.39
2023-10-01T09:41:35.401Z,65.28
2023-10-01T09:42:35.364Z,65.83
2023-10-01T09:43:35.557Z,64.89
2023-10-01T09:44:35.390Z,63.69
2023-10-01T09:45:35.330Z,63.09
2023-10-01T09:46:35.364Z,62.37
2023-10-01T09:47:35.394Z,62.76
2023-10-01T09:48:35.597Z,63.59
2023-10-01T09:49:35.339Z,63.92
2023-10-01T09:50:35.279Z,63.39
2023-10-01T09:51:35.267Z,62.70
2023-10-01T09:52:35.304Z,63.36
2023-10-01T09:53:35.243Z,63.66
2023-10-01T09:54:35.219Z,64.00
2023-10-01T09:55:35.308Z,63.69
2023-10-01T09:56:35.205Z,65.12
2023-10-01T09:57:35.188Z,64.69
2023-10-01T09:58:35.293Z,63.56
2023-10-01T09:59:35.189Z,64.39
2023-10-01T10:00:35.157Z,65.83
2023-10-01T10:01:35.819Z,63.96
2023-10-01T10:02:35.220Z,63.63
2023-10-01T10:03:35.129Z,63.23
2023-10-01T10:04:35.196Z,63.73
2023-10-01T10:05:35.150Z,62.53
2023-10-01T10:06:35.089Z,63.50
2023-10-01T10:07:35.140Z,62.93
2023-10-01T10:08:35.063Z,63.53
2023-10-01T10:09:35.058Z,64.13
2023-10-01T10:10:35.082Z,63.47
2023-10-01T10:11:35.048Z,62.04
2023-10-01T10:12:35.019Z,62.23
2023-10-01T10:13:35.336Z,64.33
2023-10-01T10:14:34.982Z,63.43
2023-10-01T10:15:34.978Z,62.01
2023-10-01T10:16:35.344Z,63.60
2023-10-01T10:17:35.014Z,63.80
2023-10-01T10:18:34.947Z,63.90
2023-10-01T10:19:34.946Z,63.33
2023-10-01T10:20:41.935Z,63.40
2023-10-01T10:21:37.214Z,62.57
2023-10-01T10:22:34.922Z,61.74
2023-10-01T10:23:35.125Z,61.22
2023-10-01T10:24:34.865Z,60.32
2023-10-01T10:25:35.020Z,60.36
2023-10-01T10:26:34.932Z,60.12
2023-10-01T10:27:34.876Z,60.89
2023-10-01T10:28:34.947Z,60.42
2023-10-01T10:29:34.827Z,60.99
2023-10-01T10:30:34.815Z,60.52
2023-10-01T10:31:35.324Z,60.79
2023-10-01T10:32:34.910Z,60.49
2023-10-01T10:33:34.790Z,60.72
2023-10-01T10:34:34.775Z,59.17
2023-10-01T10:35:34.753Z,59.27
2023-10-01T10:36:34.757Z,59.23
2023-10-01T10:37:34.759Z,59.66
2023-10-01T10:38:34.747Z,60.29
2023-10-01T10:39:34.728Z,59.92
2023-10-01T10:40:34.728Z,60.29
2023-10-01T10:41:34.671Z,60.42
2023-10-01T10:42:35.000Z,60.52
2023-10-01T10:43:34.687Z,61.08
2023-10-01T10:44:34.681Z,61.57
2023-10-01T10:45:34.705Z,61.74
2023-10-01T10:46:34.823Z,61.44
2023-10-01T10:47:34.640Z,60.75
2023-10-01T10:48:34.598Z,60.62
2023-10-01T10:49:34.600Z,60.55
2023-10-01T10:50:34.575Z,59.62
2023-10-01T10:51:34.557Z,61.69
2023-10-01T10:52:34.638Z,59.86
2023-10-01T10:53:34.547Z,59.47
2023-10-01T10:54:34.516Z,59.56
2023-10-01T10:55:34.628Z,59.53
2023-10-01T10:56:34.493Z,59.23
2023-10-01T10:57:34.490Z,58.44
2023-10-01T10:58:34.506Z,59.51
2023-10-01T10:59:34.471Z,59.74
2023-10-01T11:00:34.469Z,58.74
2023-10-01T11:01:34.551Z,60.83
2023-10-01T11:02:34.490Z,59.14
2023-10-01T11:03:34.443Z,59.27
2023-10-01T11:04:34.445Z,59.36
2023-10-01T11:05:34.449Z,58.67
2023-10-01T11:06:34.406Z,58.97
2023-10-01T11:07:34.449Z,58.64
2023-10-01T11:08:34.397Z,59.11
2023-10-01T11:09:34.502Z,59.28
2023-10-01T11:10:34.468Z,58.61
2023-10-01T11:11:42.324Z,59.44
2023-10-01T11:12:35.447Z,58.84
2023-10-01T11:13:34.442Z,58.44
2023-10-01T11:14:34.325Z,59.27
2023-10-01T11:15:34.734Z,59.04
2023-10-01T11:16:34.466Z,58.58
2023-10-01T11:17:34.289Z,57.99
2023-10-01T11:18:34.331Z,57.26
2023-10-01T11:19:34.262Z,58.39
2023-10-01T11:20:34.292Z,57.42
2023-10-01T11:21:34.463Z,57.79
2023-10-01T11:22:34.259Z,57.79
2023-10-01T11:23:34.356Z,56.89
2023-10-01T11:24:34.212Z,58.09
2023-10-01T11:25:34.274Z,58.69
2023-10-01T11:26:34.167Z,57.39
2023-10-01T11:27:34.180Z,57.17
2023-10-01T11:28:34.367Z,57.09
2023-10-01T11:29:34.134Z,57.46
2023-10-01T11:30:34.119Z,58.58
2023-10-01T11:31:34.198Z,57.66
2023-10-01T11:32:34.224Z,56.21
2023-10-01T11:33:34.128Z,57.14
2023-10-01T11:34:34.123Z,56.64
2023-10-01T11:35:34.425Z,56.51
2023-10-01T11:36:34.054Z,56.02
2023-10-01T11:37:34.113Z,55.00
2023-10-01T11:38:34.046Z,54.82
2023-10-01T11:39:34.015Z,55.52
2023-10-01T11:40:34.212Z,55.12
2023-10-01T11:41:33.996Z,57.17
2023-10-01T11:42:33.974Z,57.26
2023-10-01T11:43:34.530Z,58.03
2023-10-01T11:44:33.965Z,56.96
2023-10-01T11:45:34.050Z,57.17
2023-10-01T11:46:34.466Z,56.94
2023-10-01T11:47:33.971Z,56.74
2023-10-01T11:48:33.927Z,56.04
2023-10-01T11:49:33.926Z,56.57
2023-10-01T11:50:33.888Z,57.17
2023-10-01T11:51:33.979Z,57.43
2023-10-01T11:52:33.997Z,56.12
2023-10-01T11:53:33.844Z,57.04
2023-10-01T11:54:33.841Z,56.87
2023-10-01T11:55:34.025Z,56.94
2023-10-01T11:56:33.836Z,58.13
2023-10-01T11:57:33.828Z,56.94
2023-10-01T11:58:33.809Z,56.41
2023-10-01T11:59:33.784Z,56.68
2023-10-01T12:00:33.764Z,56.49
2023-10-01T12:01:33.902Z,56.68
2023-10-01T12:02:33.745Z,55.49
2023-10-01T12:03:33.849Z,55.15
2023-10-01T12:04:33.807Z,56.24
2023-10-01T12:05:33.706Z,56.12
2023-10-01T12:06:33.691Z,55.35
2023-10-01T12:07:34.408Z,55.74
2023-10-01T12:08:33.667Z,56.74
2023-10-01T12:09:33.656Z,56.34
2023-10-01T12:10:34.080Z,55.77
2023-10-01T12:11:33.631Z,55.65
2023-10-01T12:12:33.644Z,55.44
2023-10-01T12:13:33.630Z,55.72
2023-10-01T12:14:33.676Z,55.52
2023-10-01T12:15:33.609Z,55.40
2023-10-01T12:16:33.627Z,55.02
2023-10-01T12:17:33.563Z,54.87
2023-10-01T12:18:34.802Z,55.59
2023-10-01T12:19:33.586Z,56.88
2023-10-01T12:20:33.512Z,55.07
2023-10-01T12:21:33.515Z,55.72
2023-10-01T12:22:33.556Z,55.35
2023-10-01T12:23:33.553Z,55.67
2023-10-01T12:24:33.480Z,56.74
2023-10-01T12:25:33.506Z,55.62
2023-10-01T12:26:33.460Z,55.52
2023-10-01T12:27:33.484Z,55.00
2023-10-01T12:28:33.458Z,55.79
2023-10-01T12:29:33.499Z,55.32
2023-10-01T12:30:33.390Z,55.36
2023-10-01T12:31:33.467Z,55.69
2023-10-01T12:32:33.394Z,54.82
2023-10-01T12:33:33.367Z,55.62
2023-10-01T12:34:33.425Z,55.02
2023-10-01T12:35:33.370Z,55.32
2023-10-01T12:36:34.170Z,54.63
2023-10-01T12:37:33.344Z,53.70
2023-10-01T12:38:33.311Z,54.93
2023-10-01T12:40:33.361Z,53.38
2023-10-01T12:41:33.349Z,54.00
2023-10-01T12:42:33.275Z,53.48
2023-10-01T12:43:33.283Z,53.51
2023-10-01T12:44:33.257Z,53.19
2023-10-01T12:45:33.251Z,52.26
2023-10-01T12:46:33.298Z,52.17
2023-10-01T12:47:33.225Z,52.49
2023-10-01T12:48:33.234Z,52.49
2023-10-01T12:49:33.342Z,52.61
2023-10-01T12:50:33.158Z,51.92
2023-10-01T12:51:33.161Z,52.02
2023-10-01T12:52:33.176Z,52.69
2023-10-01T12:53:33.139Z,52.22